createdAt,value
2017-07-02T00:02:20.452Z,5.20
2017-07-02T00:04:48.160Z,4.93
2017-07-02T00:07:15.760Z,5.13
2017-07-02T00:09:43.431Z,5.53
2017-07-02T00:12:11.051Z,5.23
2017-07-02T00:14:38.782Z,4.90
2017-07-02T00:17:07.140Z,5.60
2017-07-02T00:19:35.335Z,5.90
2017-07-02T00:22:03.262Z,5.40
2017-07-02T00:24:30.863Z,6.07
2017-07-02T00:26:58.502Z,5.40
2017-07-02T00:29:26.090Z,5.90
2017-07-02T00:31:53.715Z,4.93
2017-07-02T00:34:21.320Z,5.83
2017-07-02T00:36:48.968Z,5.33
2017-07-02T00:39:16.694Z,5.37
2017-07-02T00:41:45.187Z,6.50
2017-07-02T00:44:12.832Z,5.90
2017-07-02T00:46:41.689Z,5.80
2017-07-02T00:49:10.162Z,5.80
2017-07-02T00:51:37.774Z,5.50
2017-07-02T00:54:05.432Z,5.30
2017-07-02T00:56:33.276Z,5.63
2017-07-02T00:59:01.001Z,5.80
2017-07-02T01:01:28.619Z,5.70
2017-07-02T01:03:56.181Z,5.73
2017-07-02T01:06:24.433Z,4.73
2017-07-02T01:08:52.020Z,6.20
2017-07-02T01:11:19.647Z,6.00
2017-07-02T01:13:47.279Z,5.87
2017-07-02T01:16:14.891Z,5.93
2017-07-02T01:18:42.657Z,6.50
2017-07-02T01:21:10.410Z,5.77
2017-07-02T01:23:38.607Z,5.30
2017-07-02T01:26:06.607Z,5.63
2017-07-02T01:28:35.033Z,6.20
2017-07-02T01:31:02.652Z,6.47
2017-07-02T01:33:30.220Z,5.63
2017-07-02T01:35:58.064Z,5.80
2017-07-02T01:38:25.645Z,5.77
2017-07-02T01:40:53.216Z,6.20
2017-07-02T01:43:21.719Z,5.87
2017-07-02T01:45:49.356Z,5.30
2017-07-02T01:48:17.129Z,6.00
2017-07-02T01:50:44.778Z,5.40
2017-07-02T01:53:12.397Z,5.50
2017-07-02T01:55:40.169Z,6.10
2017-07-02T01:58:14.864Z,6.47
2017-07-02T02:01:04.643Z,5.47
2017-07-02T02:03:32.522Z,5.53
2017-07-02T02:06:00.092Z,5.70
2017-07-02T02:08:27.723Z,5.90
2017-07-02T02:10:55.480Z,5.60
2017-07-02T02:13:23.051Z,5.43
2017-07-02T02:15:50.663Z,6.20
2017-07-02T02:18:18.216Z,5.70
2017-07-02T02:20:45.795Z,5.80
2017-07-02T02:23:13.440Z,5.90
2017-07-02T02:25:41.059Z,6.40
2017-07-02T02:28:08.860Z,5.77
2017-07-02T02:30:36.436Z,6.23
2017-07-02T02:33:04.024Z,5.90
2017-07-02T02:35:31.699Z,6.03
2017-07-02T02:37:59.585Z,6.00
2017-07-02T02:40:27.191Z,5.80
2017-07-02T02:42:54.950Z,6.40
2017-07-02T02:45:22.581Z,7.13
2017-07-02T02:47:50.159Z,6.50
2017-07-02T02:50:17.781Z,6.77
2017-07-02T02:52:45.385Z,6.20
2017-07-02T02:55:14.429Z,6.13
2017-07-02T02:57:42.023Z,6.57
2017-07-02T03:00:09.882Z,6.23
2017-07-02T03:02:37.443Z,5.80
2017-07-02T03:05:05.066Z,6.50
2017-07-02T03:07:32.709Z,6.17
2017-07-02T03:10:00.284Z,6.13
2017-07-02T03:12:27.883Z,6.30
2017-07-02T03:14:55.663Z,5.93
2017-07-02T03:17:23.310Z,6.80
2017-07-02T03:19:50.859Z,6.03
2017-07-02T03:22:18.445Z,6.13
2017-07-02T03:24:46.053Z,6.90
2017-07-02T03:27:13.634Z,5.63
2017-07-02T03:29:41.275Z,6.43
2017-07-02T03:32:09.221Z,5.77
2017-07-02T03:34:36.819Z,5.80
2017-07-02T03:37:04.386Z,6.40
2017-07-02T03:39:32.151Z,6.77
2017-07-02T03:41:59.768Z,6.20
2017-07-02T03:44:27.361Z,6.30
2017-07-02T03:46:55.595Z,5.50
2017-07-02T03:49:23.793Z,6.63
2017-07-02T03:51:51.377Z,5.60
2017-07-02T03:54:19.212Z,6.67
2017-07-02T03:56:46.792Z,7.80
2017-07-02T03:59:14.554Z,7.50
2017-07-02T04:01:42.185Z,8.87
2017-07-02T04:04:09.770Z,6.17
2017-07-02T04:06:37.374Z,6.13
2017-07-02T04:09:04.960Z,5.93
2017-07-02T04:11:32.625Z,6.50
2017-07-02T04:14:00.244Z,5.70
2017-07-02T04:16:27.914Z,6.97
2017-07-02T04:18:55.556Z,6.70
2017-07-02T04:21:23.154Z,6.60
2017-07-02T04:23:50.772Z,7.00
2017-07-02T04:26:18.335Z,7.20
2017-07-02T04:28:45.935Z,6.10
2017-07-02T04:31:13.603Z,6.40
2017-07-02T04:33:41.351Z,5.80
2017-07-02T04:36:08.930Z,5.80
2017-07-02T04:38:36.571Z,5.63
2017-07-02T04:41:04.948Z,5.70
2017-07-02T04:43:32.558Z,5.90
2017-07-02T04:46:00.177Z,5.10
2017-07-02T04:48:27.816Z,6.30
2017-07-02T04:50:55.439Z,5.50
2017-07-02T04:53:23.299Z,5.50
2017-07-02T04:55:50.892Z,5.87
2017-07-02T04:58:18.467Z,5.60
2017-07-02T05:00:46.140Z,5.67
2017-07-02T05:03:13.744Z,5.37
2017-07-02T05:05:41.709Z,5.40
2017-07-02T05:08:09.332Z,6.30
2017-07-02T05:10:36.919Z,5.20
2017-07-02T05:13:04.541Z,5.67
2017-07-02T05:15:32.135Z,5.90
2017-07-02T05:17:59.718Z,6.10
2017-07-02T05:20:27.295Z,5.20
2017-07-02T05:22:55.426Z,5.23
2017-07-02T05:25:23.018Z,5.30
2017-07-02T05:27:50.600Z,6.17
2017-07-02T05:30:18.341Z,5.70
2017-07-02T05:32:45.945Z,6.40
2017-07-02T05:35:13.793Z,5.23
2017-07-02T05:37:41.414Z,5.80
2017-07-02T05:40:09.013Z,5.70
2017-07-02T05:42:36.666Z,6.10
2017-07-02T05:45:04.308Z,5.93
2017-07-02T05:47:32.938Z,5.20
2017-07-02T05:50:00.724Z,5.97
2017-07-02T05:52:28.487Z,5.53
2017-07-02T05:54:56.084Z,5.00
2017-07-02T05:57:23.900Z,6.77
2017-07-02T05:59:51.545Z,6.73
2017-07-02T06:02:19.960Z,7.47
2017-07-02T06:04:47.582Z,5.70
2017-07-02T06:07:15.643Z,5.90
2017-07-02T06:09:43.466Z,5.47
2017-07-02T06:12:11.099Z,5.70
2017-07-02T06:14:38.700Z,5.23
2017-07-02T06:17:06.311Z,4.67
2017-07-02T06:19:33.924Z,4.50
2017-07-02T06:22:01.537Z,5.50
2017-07-02T06:24:29.143Z,5.60
2017-07-02T06:26:56.724Z,4.47
2017-07-02T06:29:24.331Z,5.00
2017-07-02T06:31:51.979Z,5.13
2017-07-02T06:34:19.609Z,5.23
2017-07-02T06:36:47.218Z,5.30
2017-07-02T06:39:14.857Z,4.47
2017-07-02T06:41:42.503Z,5.10
2017-07-02T06:44:10.111Z,3.50
2017-07-02T06:46:37.723Z,4.37
2017-07-02T06:49:05.339Z,4.07
2017-07-02T06:51:32.934Z,4.37
2017-07-02T06:54:01.061Z,4.37
2017-07-02T06:56:28.831Z,4.40
2017-07-02T06:58:56.631Z,4.83
2017-07-02T07:01:24.257Z,5.10
2017-07-02T07:03:51.871Z,4.30
2017-07-02T07:06:19.662Z,5.17
2017-07-02T07:08:47.348Z,5.20
2017-07-02T07:11:14.964Z,5.33
2017-07-02T07:13:42.703Z,5.03
2017-07-02T07:16:10.701Z,4.10
2017-07-02T07:18:38.422Z,4.70
2017-07-02T07:21:06.763Z,3.97
2017-07-02T07:23:34.421Z,3.83
2017-07-02T07:26:02.000Z,3.47
2017-07-02T07:28:29.963Z,3.70
2017-07-02T07:30:57.614Z,4.53
2017-07-02T07:33:25.257Z,4.37
2017-07-02T07:35:53.584Z,4.10
2017-07-02T07:38:22.020Z,3.93
2017-07-02T07:40:50.464Z,3.80
2017-07-02T07:43:18.224Z,3.97
2017-07-02T07:45:45.840Z,3.77
2017-07-02T07:48:13.895Z,4.00
2017-07-02T07:50:41.668Z,3.93
2017-07-02T07:53:16.259Z,3.63
2017-07-02T07:55:44.642Z,4.13
2017-07-02T07:58:12.272Z,3.97
2017-07-02T08:00:39.919Z,4.80
2017-07-02T08:03:07.557Z,4.70
2017-07-02T08:05:35.193Z,3.53
2017-07-02T08:08:04.065Z,3.90
2017-07-02T08:10:31.882Z,5.93
2017-07-02T08:12:59.508Z,5.17
2017-07-02T08:15:27.164Z,6.60
2017-07-02T08:17:55.040Z,12.77
2017-07-02T08:20:23.340Z,5.00
2017-07-02T08:22:50.991Z,5.30
2017-07-02T08:25:19.418Z,4.77
2017-07-02T08:27:47.036Z,5.70
2017-07-02T08:30:14.747Z,17.80
2017-07-02T08:32:42.372Z,3.93
2017-07-02T08:35:10.176Z,5.13
2017-07-02T08:37:38.362Z,3.33
2017-07-02T08:40:06.146Z,4.90
2017-07-02T08:42:33.778Z,4.20
2017-07-02T08:45:02.153Z,3.67
2017-07-02T08:47:29.893Z,4.13
2017-07-02T08:49:57.582Z,3.10
2017-07-02T08:52:25.238Z,3.10
2017-07-02T08:54:53.421Z,3.97
2017-07-02T08:57:21.692Z,3.30
2017-07-02T08:59:49.369Z,3.40
2017-07-02T09:02:17.004Z,3.50
2017-07-02T09:04:44.611Z,3.50
2017-07-02T09:07:12.241Z,6.87
2017-07-02T09:09:39.891Z,3.43
2017-07-02T09:12:07.534Z,3.50
2017-07-02T09:14:35.192Z,4.07
2017-07-02T09:17:03.392Z,3.70
2017-07-02T09:19:31.074Z,3.47
2017-07-02T09:21:59.608Z,3.20
2017-07-02T09:24:27.228Z,4.60
2017-07-02T09:26:55.074Z,3.67
2017-07-02T09:29:22.687Z,3.87
2017-07-02T09:31:50.304Z,4.40
2017-07-02T09:34:18.085Z,3.80
2017-07-02T09:36:45.720Z,7.10
2017-07-02T09:39:13.397Z,4.40
2017-07-02T09:41:41.020Z,7.30
2017-07-02T09:44:08.692Z,5.17
2017-07-02T09:46:36.325Z,8.33
2017-07-02T09:49:03.988Z,5.83
2017-07-02T09:51:31.695Z,4.93
2017-07-02T09:53:59.384Z,5.00
2017-07-02T09:56:27.547Z,3.53
2017-07-02T09:58:55.824Z,3.70
2017-07-02T10:01:23.519Z,4.53
2017-07-02T10:03:51.399Z,3.40
2017-07-02T10:06:19.209Z,3.60
2017-07-02T10:08:46.952Z,4.13
2017-07-02T10:11:14.618Z,2.83
2017-07-02T10:13:42.288Z,3.40
2017-07-02T10:16:10.053Z,4.23
2017-07-02T10:18:37.729Z,3.70
2017-07-02T10:21:05.411Z,3.50
2017-07-02T10:23:33.638Z,3.50
2017-07-02T10:26:01.299Z,3.67
2017-07-02T10:28:29.726Z,3.70
2017-07-02T10:30:58.161Z,3.90
2017-07-02T10:33:25.809Z,5.20
2017-07-02T10:35:53.472Z,4.07
2017-07-02T10:38:21.681Z,3.80
2017-07-02T10:40:49.507Z,4.13
2017-07-02T10:43:17.189Z,3.80
2017-07-02T10:45:44.993Z,4.20
2017-07-02T10:48:12.663Z,3.70
2017-07-02T10:50:40.285Z,3.93
2017-07-02T10:53:08.066Z,4.53
2017-07-02T10:55:35.697Z,3.70
2017-07-02T10:58:03.671Z,4.57
2017-07-02T11:00:31.373Z,4.43
2017-07-02T11:02:58.994Z,4.00
2017-07-02T11:05:26.628Z,3.20
2017-07-02T11:07:54.254Z,4.20
2017-07-02T11:10:21.902Z,4.10
2017-07-02T11:12:49.677Z,3.73
2017-07-02T11:15:17.311Z,4.07
2017-07-02T11:17:45.251Z,4.90
2017-07-02T11:20:12.919Z,5.10
2017-07-02T11:22:41.113Z,3.93
2017-07-02T11:25:08.763Z,3.77
2017-07-02T11:27:36.525Z,4.93
2017-07-02T11:30:06.341Z,4.80
2017-07-02T11:32:34.031Z,4.10
2017-07-02T11:35:01.657Z,6.03
2017-07-02T11:37:29.416Z,4.30
2017-07-02T11:39:57.054Z,4.33
2017-07-02T11:42:24.697Z,4.70
2017-07-02T11:44:52.559Z,3.77
2017-07-02T11:47:20.205Z,3.93
2017-07-02T11:49:47.931Z,3.60
2017-07-02T11:52:15.609Z,3.50
2017-07-02T11:54:43.310Z,3.67
2017-07-02T11:57:11.021Z,3.23
2017-07-02T11:59:38.787Z,4.23
2017-07-02T12:02:06.451Z,4.00
2017-07-02T12:04:34.610Z,3.87
2017-07-02T12:07:02.237Z,4.33
2017-07-02T12:09:29.882Z,4.13
2017-07-02T12:11:57.507Z,4.20
2017-07-02T12:14:25.158Z,4.40
2017-07-02T12:16:52.848Z,5.17
2017-07-02T12:19:20.554Z,6.50
2017-07-02T12:21:48.285Z,4.53
2017-07-02T12:24:16.810Z,5.67
2017-07-02T12:26:44.534Z,4.40
2017-07-02T12:29:12.242Z,3.27
2017-07-02T12:31:40.551Z,4.00
2017-07-02T12:34:08.221Z,4.00
2017-07-02T12:36:35.894Z,3.83
2017-07-02T12:39:03.582Z,4.40
2017-07-02T12:41:31.797Z,4.07
2017-07-02T12:43:59.496Z,4.10
2017-07-02T12:46:27.271Z,4.00
2017-07-02T12:48:54.997Z,3.60
2017-07-02T12:51:23.693Z,4.90
2017-07-02T12:53:51.360Z,5.43
2017-07-02T12:56:18.991Z,4.70
2017-07-02T12:58:46.620Z,5.50
2017-07-02T13:01:14.289Z,4.70
2017-07-02T13:03:41.910Z,4.97
2017-07-02T13:06:09.550Z,4.60
2017-07-02T13:08:37.243Z,4.77
2017-07-02T13:11:05.029Z,4.90
2017-07-02T13:13:32.880Z,4.17
2017-07-02T13:16:00.704Z,7.00
2017-07-02T13:18:29.195Z,6.33
2017-07-02T13:20:57.458Z,5.10
2017-07-02T13:23:26.033Z,5.00
2017-07-02T13:25:53.713Z,5.03
2017-07-02T13:28:21.333Z,4.30
2017-07-02T13:30:49.032Z,4.00
2017-07-02T13:33:16.766Z,4.70
2017-07-02T13:35:44.585Z,4.33
2017-07-02T13:38:12.454Z,4.03
2017-07-02T13:40:40.077Z,4.20
2017-07-02T13:43:07.935Z,4.40
2017-07-02T13:45:36.507Z,4.17
2017-07-02T13:48:04.133Z,4.23
2017-07-02T13:50:31.778Z,3.93
2017-07-02T13:52:59.690Z,4.37
2017-07-02T13:55:27.279Z,5.33
2017-07-02T13:57:54.873Z,4.60
2017-07-02T14:00:22.550Z,4.63
2017-07-02T14:02:50.156Z,3.47
2017-07-02T14:05:17.795Z,4.33
2017-07-02T14:07:46.078Z,4.27
2017-07-02T14:10:14.296Z,4.00
2017-07-02T14:12:41.971Z,5.37
2017-07-02T14:15:09.701Z,4.73
2017-07-02T14:17:37.298Z,4.87
2017-07-02T14:20:04.994Z,4.30
2017-07-02T14:22:32.612Z,5.23
2017-07-02T14:25:00.474Z,5.67
2017-07-02T14:27:28.711Z,5.30
2017-07-02T14:29:56.314Z,4.10
2017-07-02T14:32:24.859Z,3.97
2017-07-02T14:34:52.503Z,7.00
2017-07-02T14:37:20.177Z,9.07
2017-07-02T14:39:47.808Z,4.67
2017-07-02T14:42:15.521Z,4.33
2017-07-02T14:44:43.165Z,4.30
2017-07-02T14:47:10.823Z,5.50
2017-07-02T14:49:38.386Z,5.83
2017-07-02T14:52:07.505Z,6.17
2017-07-02T14:54:35.092Z,6.60
2017-07-02T14:57:02.697Z,7.60
2017-07-02T14:59:30.319Z,7.03
2017-07-02T15:01:58.109Z,5.93
2017-07-02T15:04:25.749Z,6.10
2017-07-02T15:06:53.352Z,8.70
2017-07-02T15:09:21.068Z,9.00
2017-07-02T15:11:48.660Z,7.63
2017-07-02T15:14:16.804Z,12.27
2017-07-02T15:16:44.410Z,11.27
2017-07-02T15:19:12.203Z,10.57
2017-07-02T15:21:40.781Z,8.60
2017-07-02T15:24:08.428Z,8.73
2017-07-02T15:26:36.711Z,8.43
2017-07-02T15:29:04.372Z,6.23
2017-07-02T15:31:32.000Z,7.90
2017-07-02T15:34:00.467Z,8.00
2017-07-02T15:36:28.284Z,10.50
2017-07-02T15:38:55.898Z,10.03
2017-07-02T15:41:23.531Z,6.63
2017-07-02T15:43:51.129Z,9.70
2017-07-02T15:46:18.771Z,9.53
2017-07-02T15:48:46.988Z,9.93
2017-07-02T15:51:15.495Z,5.60
2017-07-02T15:53:43.074Z,7.30
2017-07-02T15:56:10.663Z,7.63
2017-07-02T15:58:38.981Z,12.80
2017-07-02T16:01:06.752Z,8.70
2017-07-02T16:03:34.338Z,10.27
2017-07-02T16:06:02.562Z,7.30
2017-07-02T16:08:30.244Z,7.60
2017-07-02T16:10:57.880Z,7.00
2017-07-02T16:13:25.493Z,4.43
2017-07-02T16:15:54.250Z,6.80
2017-07-02T16:18:32.034Z,5.67
2017-07-02T16:20:59.969Z,7.07
2017-07-02T16:23:54.582Z,7.80
2017-07-02T16:26:35.975Z,6.60
2017-07-02T16:32:05.077Z,7.70
2017-07-02T16:34:32.970Z,8.10
2017-07-02T16:37:16.926Z,7.23
2017-07-02T16:39:44.587Z,4.40
2017-07-02T16:42:15.364Z,4.10
2017-07-02T16:44:43.157Z,3.70
2017-07-02T17:01:17.654Z,4.03
2017-07-02T17:03:45.382Z,4.10
2017-07-02T17:06:13.743Z,3.80
2017-07-02T17:08:44.447Z,3.70
2017-07-02T17:11:13.971Z,4.80
2017-07-02T17:13:42.617Z,4.27
2017-07-02T17:18:43.656Z,3.83
2017-07-02T17:21:11.232Z,3.77
2017-07-02T17:23:39.722Z,4.40
2017-07-02T17:26:07.432Z,4.10
2017-07-02T17:28:35.051Z,4.20
2017-07-02T17:31:02.642Z,4.30
2017-07-02T17:33:31.638Z,4.17
2017-07-02T17:35:59.235Z,4.80
2017-07-02T17:38:27.075Z,4.37
2017-07-02T17:40:55.488Z,4.03
2017-07-02T17:43:23.155Z,4.90
2017-07-02T17:45:50.764Z,5.20
2017-07-02T17:48:19.188Z,5.90
2017-07-02T17:50:46.828Z,5.60
2017-07-02T17:53:14.782Z,4.97
2017-07-02T17:55:42.669Z,5.17
2017-07-02T17:58:10.264Z,5.53
2017-07-02T18:00:39.537Z,5.40
2017-07-02T18:03:08.106Z,6.10
2017-07-02T18:05:37.573Z,5.70
2017-07-02T18:08:05.205Z,5.20
2017-07-02T18:10:32.849Z,7.60
2017-07-02T18:13:00.479Z,5.93
2017-07-02T18:15:28.991Z,5.70
2017-07-02T18:17:57.253Z,4.13
2017-07-02T18:20:25.047Z,4.60
2017-07-02T18:22:52.787Z,5.00
2017-07-02T18:25:20.467Z,5.20
2017-07-02T18:27:48.112Z,6.20
2017-07-02T18:30:16.476Z,5.20
2017-07-02T18:32:44.105Z,4.50
2017-07-02T18:35:11.683Z,4.37
2017-07-02T18:37:39.555Z,5.27
2017-07-02T18:40:07.179Z,4.93
2017-07-02T18:42:35.520Z,4.78
2017-07-02T18:45:03.441Z,5.80
2017-07-02T18:47:31.359Z,5.37
2017-07-02T18:49:59.046Z,5.10
2017-07-02T18:52:26.834Z,5.30
2017-07-02T18:54:54.472Z,5.10
2017-07-02T18:57:22.117Z,4.77
2017-07-02T18:59:49.774Z,5.77
2017-07-02T19:02:17.418Z,6.13
2017-07-02T19:04:45.746Z,5.77
2017-07-02T19:07:13.418Z,5.10
2017-07-02T19:09:41.142Z,5.23
2017-07-02T19:12:08.856Z,4.63
2017-07-02T19:14:36.554Z,5.07
2017-07-02T19:17:04.359Z,4.73
2017-07-02T19:19:32.507Z,4.83
2017-07-02T19:22:00.849Z,5.27
2017-07-02T19:24:31.379Z,5.70
2017-07-02T19:27:00.632Z,5.83
2017-07-02T19:29:28.513Z,6.20
2017-07-02T19:31:56.236Z,6.23
2017-07-02T19:34:24.145Z,5.60
2017-07-02T19:36:51.813Z,5.60
2017-07-02T19:39:19.470Z,5.53
2017-07-02T19:41:47.699Z,5.57
2017-07-02T19:44:15.392Z,4.80
2017-07-02T19:46:43.194Z,5.40
2017-07-02T19:49:10.847Z,5.60
2017-07-02T19:51:38.512Z,5.80
2017-07-02T19:54:07.252Z,5.70
2017-07-02T19:56:36.007Z,5.00
2017-07-02T19:59:03.829Z,5.73
2017-07-02T20:01:31.632Z,5.57
2017-07-02T20:03:59.357Z,5.70
2017-07-02T20:06:27.376Z,6.63
2017-07-02T20:08:55.360Z,6.23
2017-07-02T20:11:24.122Z,5.80
2017-07-02T20:13:54.452Z,5.20
2017-07-02T20:16:23.528Z,4.87
2017-07-02T20:18:51.377Z,4.70
2017-07-02T20:21:19.444Z,4.70
2017-07-02T20:23:49.089Z,5.13
2017-07-02T20:26:17.849Z,6.33
2017-07-02T20:28:49.476Z,4.70
2017-07-02T20:31:21.519Z,5.17
2017-07-02T20:33:50.245Z,4.70
2017-07-02T20:36:18.159Z,5.03
2017-07-02T20:38:45.769Z,5.00
2017-07-02T20:41:13.539Z,5.17
2017-07-02T20:43:41.114Z,5.03
2017-07-02T20:46:08.707Z,5.33
2017-07-02T20:48:36.335Z,4.93
2017-07-02T20:51:04.612Z,5.30
2017-07-02T20:53:33.889Z,5.83
2017-07-02T20:56:01.437Z,4.80
2017-07-02T20:58:29.204Z,4.70
2017-07-02T21:00:56.813Z,5.70
2017-07-02T21:03:24.346Z,5.67
2017-07-02T21:05:51.964Z,5.70
2017-07-02T21:08:20.348Z,5.70
2017-07-02T21:10:47.945Z,4.83
2017-07-02T21:13:15.522Z,5.73
2017-07-02T21:15:43.413Z,5.13
2017-07-02T21:18:11.017Z,4.73
2017-07-02T21:20:38.626Z,5.30
2017-07-02T21:23:06.241Z,4.43
2017-07-02T21:25:34.004Z,4.53
2017-07-02T21:28:01.582Z,4.50
2017-07-02T21:30:29.581Z,4.60
2017-07-02T21:32:57.205Z,4.70
2017-07-02T21:35:24.781Z,4.13
2017-07-02T21:37:52.444Z,5.13
2017-07-02T21:40:20.066Z,4.37
2017-07-02T21:42:47.634Z,4.27
2017-07-02T21:45:15.989Z,4.07
2017-07-02T21:47:43.591Z,4.63
2017-07-02T21:50:11.187Z,4.03
2017-07-02T21:52:38.809Z,3.20
2017-07-02T21:55:06.367Z,3.10
2017-07-02T21:57:33.936Z,3.20
2017-07-02T22:00:01.591Z,2.90
2017-07-02T22:02:29.225Z,3.10
2017-07-02T22:04:57.153Z,2.83
2017-07-02T22:07:24.762Z,2.37
2017-07-02T22:09:52.352Z,2.17
2017-07-02T22:12:19.999Z,2.90
2017-07-02T22:14:47.843Z,2.37
2017-07-02T22:17:15.434Z,2.37
2017-07-02T22:19:43.000Z,3.20
2017-07-02T22:22:10.548Z,2.60
2017-07-02T22:24:38.177Z,2.80
2017-07-02T22:27:05.791Z,3.10
2017-07-02T22:29:33.365Z,3.40
2017-07-02T22:32:00.965Z,3.30
2017-07-02T22:34:28.533Z,3.33
2017-07-02T22:36:56.114Z,2.90
2017-07-02T22:39:23.806Z,3.70
2017-07-02T22:41:51.339Z,3.20
2017-07-02T22:44:19.017Z,3.30
2017-07-02T22:46:46.625Z,3.80
2017-07-02T22:49:14.194Z,3.47
2017-07-02T22:51:41.731Z,3.47
2017-07-02T22:54:09.329Z,3.50
2017-07-02T22:56:36.930Z,3.80
2017-07-02T22:59:04.460Z,4.03
2017-07-02T23:01:32.041Z,3.13
2017-07-02T23:03:59.640Z,3.43
2017-07-02T23:06:27.271Z,3.67
2017-07-02T23:08:54.902Z,3.73
2017-07-02T23:11:22.451Z,3.87
2017-07-02T23:13:50.038Z,3.37
2017-07-02T23:16:17.718Z,3.20
2017-07-02T23:18:46.153Z,3.37
2017-07-02T23:21:13.932Z,4.20
2017-07-02T23:23:42.570Z,3.80
2017-07-02T23:26:22.376Z,3.53
2017-07-02T23:28:51.362Z,3.80
2017-07-02T23:31:32.325Z,4.23
2017-07-02T23:34:00.141Z,4.40
2017-07-02T23:36:27.726Z,4.10
2017-07-02T23:38:55.849Z,4.57
2017-07-02T23:41:29.302Z,4.17
2017-07-02T23:44:04.706Z,4.00
2017-07-02T23:46:42.362Z,4.13
2017-07-02T23:49:22.610Z,4.40
2017-07-02T23:51:55.146Z,3.90
2017-07-02T23:54:22.736Z,4.20
2017-07-02T23:56:54.596Z,4.33
2017-07-02T23:59:26.705Z,4.37
